East Carver, Massachusetts
Current Conditions -  °F | °C
As of 5:52 PM on Wednesday 26 Nov 2014 (Local Time) from KPYM Reporting Station
Heavy Rain Heavy Rain  
Wind Chill: 32°   Ceiling: 800
Heat Index: 42°   Visibility: 3mi
Dew Point: 40°   Wind: 24mph
Humidity: 92%   Direction: 30°NNE
Pressure: 29.78"   Gusts: 37mph
Location:  41.9272°N, 70.7516°W
Report Text: KPYM 262252Z AUTO 03021G32KT 3SM +RA BR OVC008 06/04 A2978 RMK AO2 PK WND 02034/2237 SLP084 P0023 T00560044
Loading
Personal Weather Stations






























Interactive Weather Map New forecast layout! Learn more

10-Day Weather Forecast

Advertisements
Track Severe Weather on mobile